Time;durP1;ratioP1;P1;durP2;ratioP2;P2;SDS_P1;SDS_P2;PMS_P1;PMS_P2;Temp;Humidity;BMP_temperature;BMP_pressure;BME280_temperature;BME280_humidity;BME280_pressure;Samples;Min_cycle;Max_cycle;Signal;HPM_P1;HPM_P2
2021/08/29 00:00:00;;;;;;;0.10;0.10;;;;;;;16.08;66.48;98064.04;114467;1218;137394;-84
2021/08/29 00:02:26;;;;;;;0.10;0.10;;;;;;;16.10;66.39;98064.15;114407;1220;137707;-83
2021/08/29 00:04:51;;;;;;;0.10;0.10;;;;;;;16.10;66.40;98060.67;114472;1217;137551;-83
2021/08/29 00:07:17;;;;;;;0.20;0.20;;;;;;;16.10;66.44;98058.04;114520;1215;22357;-83
2021/08/29 00:09:43;;;;;;;0.10;0.10;;;;;;;16.09;66.37;98055.61;114464;1217;137687;-85
2021/08/29 00:12:10;;;;;;;0.20;0.20;;;;;;;16.07;66.34;98053.32;114479;1217;137552;-84
2021/08/29 00:14:36;;;;;;;0.20;0.20;;;;;;;16.04;66.45;98047.98;114372;1216;138031;-83
2021/08/29 00:17:02;;;;;;;0.10;0.10;;;;;;;16.00;66.24;98049.11;114458;1217;138195;-84
2021/08/29 00:19:27;;;;;;;0.10;0.10;;;;;;;15.97;66.25;98045.23;114583;1220;22227;-83
2021/08/29 00:21:53;;;;;;;0.20;0.20;;;;;;;15.93;66.26;98042.52;114479;1217;137368;-84
2021/08/29 00:24:19;;;;;;;0.10;0.10;;;;;;;15.92;66.26;98029.99;114464;1217;138215;-84
2021/08/29 00:26:44;;;;;;;0.20;0.20;;;;;;;15.92;66.57;98035.05;114461;1217;138682;-84
2021/08/29 00:29:10;;;;;;;0.10;0.10;;;;;;;15.93;66.67;98034.91;114497;1217;138031;-84
2021/08/29 00:31:36;;;;;;;0.20;0.20;;;;;;;15.95;66.78;98026.73;114518;1221;22312;-84
2021/08/29 00:34:02;;;;;;;0.10;0.10;;;;;;;15.95;66.68;98024.50;114459;1217;138202;-84
2021/08/29 00:36:27;;;;;;;0.10;0.10;;;;;;;15.95;66.57;98021.40;114451;1218;138036;-84
2021/08/29 00:38:53;;;;;;;0.10;0.10;;;;;;;15.95;66.62;98016.64;114483;1217;137433;-84
2021/08/29 00:41:19;;;;;;;0.30;0.30;;;;;;;15.93;66.52;98007.92;114467;1220;137676;-84
2021/08/29 00:43:44;;;;;;;0.20;0.20;;;;;;;15.91;66.58;98000.80;114582;1217;22457;-84
2021/08/29 00:46:10;;;;;;;0.20;0.20;;;;;;;15.87;66.63;97995.83;114407;1224;137424;-84
2021/08/29 00:48:35;;;;;;;0.10;0.10;;;;;;;15.84;66.66;97995.45;114366;1219;137384;-84
2021/08/29 00:51:01;;;;;;;0.20;0.20;;;;;;;15.81;66.69;97989.25;114406;1218;137553;-84
2021/08/29 00:53:29;;;;;;;0.10;0.10;;;;;;;15.79;66.58;97994.55;114423;1218;138425;-84
2021/08/29 00:55:55;;;;;;;0.10;0.10;;;;;;;15.80;66.88;97999.46;114481;1227;138286;-84
2021/08/29 00:58:24;;;;;;;0.10;0.10;;;;;;;15.82;67.05;97997.25;114577;1220;22309;-84
2021/08/29 01:00:52;;;;;;;0.20;0.20;;;;;;;15.82;67.11;97998.42;114497;1217;137299;-84
2021/08/29 01:03:26;;;;;;;0.10;0.10;;;;;;;15.83;67.04;98000.67;114413;1221;138028;-84
2021/08/29 01:06:10;;;;;;;0.10;0.10;;;;;;;15.83;67.11;97995.43;114390;1221;137303;-84
2021/08/29 01:08:39;;;;;;;0.10;0.10;;;;;;;15.81;67.12;97995.54;114438;1218;137508;-84
2021/08/29 01:11:10;;;;;;;0.10;0.10;;;;;;;15.80;66.98;97994.33;114474;1218;137497;-84
2021/08/29 01:13:45;;;;;;;0.20;0.20;;;;;;;15.78;67.25;97990.19;114604;1223;22348;-84
2021/08/29 01:16:15;;;;;;;0.10;0.10;;;;;;;15.75;67.24;97990.20;114462;1217;137045;-84
2021/08/29 01:18:42;;;;;;;0.20;0.20;;;;;;;15.70;67.19;97989.08;114464;1218;137403;-84
2021/08/29 01:21:12;;;;;;;0.10;0.10;;;;;;;15.66;67.24;97987.44;114492;1217;137449;-84
2021/08/29 01:23:42;;;;;;;0.10;0.10;;;;;;;15.64;67.29;97986.00;114511;1217;137983;-84
2021/08/29 01:26:46;;;;;;;0.10;0.10;;;;;;;15.64;67.42;97987.61;114508;1217;138272;-84
2021/08/29 01:29:14;;;;;;;0.10;0.10;;;;;;;15.67;67.59;97993.41;114364;1221;137780;-84
2021/08/29 01:31:41;;;;;;;0.10;0.10;;;;;;;15.67;67.67;97989.48;114564;1223;23057;-84
2021/08/29 01:34:10;;;;;;;0.10;0.10;;;;;;;15.68;67.57;97989.80;114469;1217;137026;-84
2021/08/29 01:36:45;;;;;;;0.20;0.20;;;;;;;15.67;67.58;97988.77;114491;1215;137456;-84
2021/08/29 01:39:11;;;;;;;0.10;0.10;;;;;;;15.65;67.45;97987.25;114423;1218;137544;-82
2021/08/29 01:41:39;;;;;;;0.20;0.20;;;;;;;15.63;67.48;97982.06;114428;1220;137532;-83
2021/08/29 01:44:06;;;;;;;0.20;0.20;;;;;;;15.61;67.45;97979.23;114525;1214;138577;-83
2021/08/29 01:46:35;;;;;;;0.10;0.10;;;;;;;15.58;67.52;97981.86;114506;1217;22322;-83
2021/08/29 01:49:03;;;;;;;0.20;0.20;;;;;;;15.54;67.53;97982.77;114457;1222;137279;-84
2021/08/29 01:51:30;;;;;;;0.20;0.20;;;;;;;15.50;67.60;97982.14;114379;1218;137783;-83
2021/08/29 01:53:55;;;;;;;0.10;0.10;;;;;;;15.49;67.69;97973.89;114465;1217;138822;-83
2021/08/29 01:56:21;;;;;;;0.20;0.20;;;;;;;15.50;67.74;97975.55;114448;1219;139401;-84
2021/08/29 01:58:46;;;;;;;0.10;0.10;;;;;;;15.52;67.92;97975.58;114592;1221;22260;-84
2021/08/29 02:01:13;;;;;;;0.10;0.10;;;;;;;15.53;67.99;97976.48;114460;1217;137128;-84
2021/08/29 02:03:43;;;;;;;0.20;0.20;;;;;;;15.54;67.96;97977.89;114412;1220;137998;-84
2021/08/29 02:06:34;;;;;;;0.10;0.10;;;;;;;15.55;67.79;97969.98;114443;1218;137508;-84
2021/08/29 02:09:03;;;;;;;0.20;0.20;;;;;;;15.54;67.89;97967.81;114460;1217;137488;-84
2021/08/29 02:11:59;;;;;;;0.20;0.20;;;;;;;15.50;67.82;97966.64;114392;1220;138635;-84
2021/08/29 02:14:29;;;;;;;0.10;0.10;;;;;;;15.45;67.88;97967.45;114447;1217;137534;-84
2021/08/29 02:16:56;;;;;;;0.10;0.10;;;;;;;15.42;67.80;97970.00;114319;1221;137386;-84
2021/08/29 02:19:32;;;;;;;0.20;0.20;;;;;;;15.37;67.62;97964.70;114566;1221;22374;-84
2021/08/29 02:21:59;;;;;;;0.20;0.20;;;;;;;15.33;67.64;97956.37;114429;1220;137238;-83
2021/08/29 02:24:26;;;;;;;0.20;0.20;;;;;;;15.29;67.81;97951.17;114469;1221;138452;-84
2021/08/29 02:26:53;;;;;;;0.20;0.20;;;;;;;15.29;67.88;97951.63;114495;1217;138374;-84
2021/08/29 02:29:19;;;;;;;0.10;0.10;;;;;;;15.29;68.01;97945.13;114493;1221;137830;-84
2021/08/29 02:31:47;;;;;;;0.20;0.20;;;;;;;15.29;67.86;97933.50;114507;1224;22321;-84
2021/08/29 02:34:13;;;;;;;0.20;0.20;;;;;;;15.29;67.92;97928.38;114420;1221;136984;-84
2021/08/29 02:36:41;;;;;;;0.20;0.20;;;;;;;15.27;67.85;97929.65;114376;1218;137343;-84
2021/08/29 02:39:07;;;;;;;0.10;0.10;;;;;;;15.25;67.75;97922.01;114420;1221;137534;-84
2021/08/29 02:41:36;;;;;;;0.10;0.10;;;;;;;15.22;67.73;97924.64;114483;1218;137650;-83
2021/08/29 02:44:05;;;;;;;0.20;0.20;;;;;;;15.17;67.57;97926.40;114445;1216;137858;-84
2021/08/29 02:46:31;;;;;;;0.20;0.20;;;;;;;15.13;67.52;97926.14;114497;1227;22330;-84
2021/08/29 02:48:56;;;;;;;0.20;0.20;;;;;;;15.07;67.34;97927.21;114422;1218;137195;-83
2021/08/29 02:51:23;;;;;;;0.20;0.20;;;;;;;14.99;67.39;97922.29;114404;1227;137466;-84
2021/08/29 02:53:51;;;;;;;0.10;0.10;;;;;;;14.92;67.27;97925.52;114481;1217;137488;-84
2021/08/29 02:56:19;;;;;;;0.10;0.10;;;;;;;14.85;67.18;97927.45;114486;1218;137888;-84
2021/08/29 02:58:46;;;;;;;0.10;0.10;;;;;;;14.81;67.32;97928.48;114564;1226;22307;-84
2021/08/29 03:01:12;;;;;;;0.10;0.10;;;;;;;14.78;67.36;97925.86;114472;1218;138891;-85
2021/08/29 03:03:38;;;;;;;0.10;0.10;;;;;;;14.75;67.50;97927.64;114466;1219;137578;-83
2021/08/29 03:06:04;;;;;;;0.20;0.20;;;;;;;14.72;67.41;97924.95;114408;1217;137581;-82
2021/08/29 03:08:30;;;;;;;0.10;0.10;;;;;;;14.69;67.32;97917.97;114479;1217;138128;-82
2021/08/29 03:10:56;;;;;;;0.10;0.10;;;;;;;14.64;67.28;97917.14;114530;1215;138023;-82
2021/08/29 03:13:22;;;;;;;0.10;0.10;;;;;;;14.60;67.26;97913.23;114684;1221;22331;-82
2021/08/29 03:15:47;;;;;;;0.10;0.10;;;;;;;14.56;67.13;97903.29;114532;1217;137800;-82
2021/08/29 03:18:13;;;;;;;0.30;0.30;;;;;;;14.50;67.20;97898.80;114461;1218;138103;-82
2021/08/29 03:20:41;;;;;;;0.20;0.20;;;;;;;14.44;67.37;97902.56;114484;1217;137490;-81
2021/08/29 03:23:07;;;;;;;0.10;0.10;;;;;;;14.37;67.22;97909.80;114482;1217;137630;-82
2021/08/29 03:25:32;;;;;;;0.10;0.10;;;;;;;14.30;67.17;97910.02;114584;1225;22323;-82
2021/08/29 03:27:58;;;;;;;0.10;0.10;;;;;;;14.23;67.12;97912.05;114550;1214;137284;-82
2021/08/29 03:30:24;;;;;;;0.00;0.00;;;;;;;14.15;67.41;97908.73;114444;1217;137966;-82
2021/08/29 03:32:49;;;;;;;0.10;0.10;;;;;;;14.10;67.39;97909.67;114462;1222;138298;-82
2021/08/29 03:35:17;;;;;;;0.20;0.20;;;;;;;14.08;67.49;97910.70;114437;1217;138432;-82
2021/08/29 03:37:44;;;;;;;0.10;0.10;;;;;;;14.07;67.49;97909.66;114584;1221;22359;-83
2021/08/29 03:40:10;;;;;;;0.10;0.10;;;;;;;14.06;67.67;97915.03;114421;1217;137380;-83
2021/08/29 03:42:36;;;;;;;0.10;0.10;;;;;;;14.04;67.47;97917.77;114399;1219;137559;-83
2021/08/29 03:45:05;;;;;;;0.10;0.10;;;;;;;14.03;67.61;97917.66;114469;1221;137400;-83
2021/08/29 03:47:31;;;;;;;0.10;0.10;;;;;;;14.00;67.65;97929.96;114394;1221;137665;-83
2021/08/29 03:49:57;;;;;;;0.10;0.10;;;;;;;13.97;67.83;97934.66;114417;1218;137568;-83
2021/08/29 03:52:23;;;;;;;0.10;0.10;;;;;;;13.93;67.68;97937.64;114596;1227;22365;-83
2021/08/29 03:54:49;;;;;;;0.10;0.10;;;;;;;13.90;67.87;97941.27;114436;1218;137145;-83
2021/08/29 03:57:15;;;;;;;0.20;0.20;;;;;;;13.86;67.98;97936.83;114553;1224;137281;-83
2021/08/29 03:59:41;;;;;;;0.10;0.10;;;;;;;13.84;68.23;97932.13;114404;1219;137595;-83
2021/08/29 04:02:08;;;;;;;0.10;0.10;;;;;;;13.84;68.46;97932.05;114481;1217;137843;-83
2021/08/29 04:04:34;;;;;;;0.20;0.20;;;;;;;13.88;68.48;97932.22;114588;1225;22411;-83
2021/08/29 04:07:04;;;;;;;0.10;0.10;;;;;;;13.90;68.79;97929.59;114440;1217;137683;-83
2021/08/29 04:09:31;;;;;;;0.10;0.10;;;;;;;13.93;68.95;97923.88;114557;1219;137477;-83
2021/08/29 04:12:00;;;;;;;0.10;0.10;;;;;;;13.95;69.11;97919.46;114523;1215;137942;-82
2021/08/29 04:14:27;;;;;;;0.20;0.20;;;;;;;13.96;69.08;97916.54;114470;1217;137764;-83
2021/08/29 04:16:58;;;;;;;0.10;0.10;;;;;;;13.97;69.14;97908.54;114416;1221;137466;-83
2021/08/29 04:19:25;;;;;;;0.20;0.20;;;;;;;13.97;68.94;97902.11;114624;1215;22437;-83
2021/08/29 04:21:53;;;;;;;0.20;0.20;;;;;;;13.96;68.96;97894.36;114414;1218;137689;-82
2021/08/29 04:24:23;;;;;;;0.10;0.10;;;;;;;13.94;68.99;97889.20;114480;1217;137331;-83
2021/08/29 04:26:49;;;;;;;0.10;0.10;;;;;;;13.92;68.98;97889.27;114465;1221;137334;-83
2021/08/29 04:29:15;;;;;;;0.10;0.10;;;;;;;13.89;68.92;97887.42;114475;1220;138122;-83
2021/08/29 04:31:46;;;;;;;0.20;0.20;;;;;;;13.89;68.94;97882.40;114529;1220;22281;-83
2021/08/29 04:34:23;;;;;;;0.10;0.10;;;;;;;13.90;69.01;97884.83;114488;1217;138068;-83
2021/08/29 04:37:12;;;;;;;0.20;0.20;;;;;;;13.93;69.15;97888.30;114423;1217;137754;-83
2021/08/29 04:39:40;;;;;;;0.10;0.10;;;;;;;13.95;69.12;97885.42;114513;1217;138744;-82
2021/08/29 04:42:06;;;;;;;0.10;0.10;;;;;;;13.96;68.86;97889.88;114489;1218;137541;-83
2021/08/29 04:44:31;;;;;;;0.10;0.10;;;;;;;13.96;68.86;97888.38;114437;1218;137825;-83
2021/08/29 04:46:57;;;;;;;0.20;0.20;;;;;;;13.93;68.86;97882.74;114363;1217;137727;-83
2021/08/29 04:49:23;;;;;;;0.10;0.10;;;;;;;13.93;69.03;97882.20;114631;1225;22340;-84
2021/08/29 04:51:51;;;;;;;0.20;0.20;;;;;;;13.94;69.15;97886.62;114495;1217;137755;-83
2021/08/29 04:54:17;;;;;;;0.20;0.20;;;;;;;13.95;69.07;97884.89;114481;1218;137636;-83
2021/08/29 04:56:42;;;;;;;0.20;0.20;;;;;;;13.96;69.14;97888.56;114598;1219;137985;-83
2021/08/29 04:59:08;;;;;;;0.30;0.30;;;;;;;13.97;69.29;97885.42;114463;1219;137484;-83
2021/08/29 05:01:34;;;;;;;0.10;0.10;;;;;;;14.02;69.30;97885.79;114620;1221;23165;-83
2021/08/29 05:03:59;;;;;;;0.10;0.10;;;;;;;14.09;69.27;97889.44;114496;1217;138152;-83
2021/08/29 05:06:28;;;;;;;0.10;0.10;;;;;;;14.16;69.34;97893.59;114401;1220;137708;-82
2021/08/29 05:08:54;;;;;;;0.20;0.20;;;;;;;14.22;69.38;97898.10;114384;1218;137409;-82
2021/08/29 05:11:31;;;;;;;0.10;0.10;;;;;;;14.27;69.29;97895.45;114326;1221;138428;-83
2021/08/29 05:13:57;;;;;;;0.10;0.10;;;;;;;14.35;69.28;97895.81;114493;1221;137621;-85
2021/08/29 05:16:23;;;;;;;0.10;0.10;;;;;;;14.42;69.18;97898.02;114609;1225;22257;-84
2021/08/29 05:19:03;;;;;;;;;;;;;;;;;;;;;
2021/08/29 05:25:02;;;;;;;0.20;0.20;;;;;;;14.56;69.11;97906.02;114263;1224;22174;-84
2021/08/29 05:27:27;;;;;;;0.10;0.10;;;;;;;14.60;69.08;97907.58;113822;1222;137097;-85
2021/08/29 05:29:53;;;;;;;0.10;0.10;;;;;;;14.62;69.10;97907.17;114058;1221;22166;-84
2021/08/29 05:32:19;;;;;;;0.10;0.10;;;;;;;14.68;69.05;97905.94;114156;1222;138253;-83
2021/08/29 05:34:45;;;;;;;0.10;0.10;;;;;;;14.78;69.18;97906.05;114554;1228;22248;-83
2021/08/29 05:37:10;;;;;;;0.20;0.20;;;;;;;14.89;69.21;97903.39;114408;1222;137302;-82
2021/08/29 05:39:37;;;;;;;0.20;0.20;;;;;;;15.00;69.20;97898.93;114403;1218;137461;-83
2021/08/29 05:45:10;;;;;;;0.20;0.20;;;;;;;15.22;69.00;97900.70;114403;1224;22285;-82
2021/08/29 05:47:36;;;;;;;0.10;0.10;;;;;;;15.31;68.61;97899.52;114346;1217;137171;-82
2021/08/29 05:50:02;;;;;;;0.10;0.10;;;;;;;15.41;68.64;97897.73;114396;1218;138444;-82
2021/08/29 05:52:28;;;;;;;0.20;0.20;;;;;;;15.49;68.27;97896.91;114505;1221;22448;-83
2021/08/29 05:54:53;;;;;;;0.10;0.10;;;;;;;15.58;68.09;97896.88;114428;1217;137924;-83
2021/08/29 05:57:25;;;;;;;0.20;0.20;;;;;;;15.66;67.86;97896.77;114452;1217;137842;-83
2021/08/29 05:59:57;;;;;;;0.20;0.20;;;;;;;15.77;67.80;97892.42;114589;1217;136183;-83
2021/08/29 06:02:25;;;;;;;0.10;0.10;;;;;;;15.85;67.75;97893.00;114525;1221;137766;-82
2021/08/29 06:05:00;;;;;;;0.20;0.20;;;;;;;15.94;67.35;97891.89;114830;1221;22353;-83
2021/08/29 06:07:30;;;;;;;0.10;0.10;;;;;;;16.06;67.02;97891.42;114625;1217;138915;-82
2021/08/29 06:10:12;;;;;;;0.20;0.20;;;;;;;16.16;66.97;97894.02;114654;1226;22332;-83
2021/08/29 06:12:52;;;;;;;;;;;;;;;;;;;;;
2021/08/29 06:15:30;;;;;;;0.10;0.10;;;;;;;16.36;66.27;97887.82;114448;1221;137882;-82
2021/08/29 06:17:56;;;;;;;0.10;0.10;;;;;;;16.42;65.86;97880.17;114459;1217;138651;-82
2021/08/29 06:20:22;;;;;;;0.10;0.10;;;;;;;16.50;65.71;97875.59;114395;1218;138239;-82
2021/08/29 06:22:49;;;;;;;0.20;0.20;;;;;;;16.58;65.55;97877.75;114544;1222;22300;-83
2021/08/29 06:25:15;;;;;;;0.10;0.10;;;;;;;16.63;65.34;97876.14;114435;1215;137217;-83
2021/08/29 06:27:40;;;;;;;0.10;0.10;;;;;;;16.71;65.22;97870.61;114430;1217;137608;-83
2021/08/29 06:30:06;;;;;;;0.20;0.20;;;;;;;16.78;64.99;97866.63;114355;1218;137630;-83
2021/08/29 06:32:32;;;;;;;0.20;0.20;;;;;;;16.84;64.62;97864.95;114443;1215;137788;-82
2021/08/29 06:34:57;;;;;;;0.20;0.20;;;;;;;16.89;64.54;97861.62;114317;1217;138073;-85
2021/08/29 06:37:23;;;;;;;0.20;0.20;;;;;;;16.96;64.51;97860.18;114555;1221;22354;-81
2021/08/29 06:39:49;;;;;;;0.10;0.10;;;;;;;17.09;64.50;97859.77;114444;1217;137115;-83
2021/08/29 06:42:15;;;;;;;0.30;0.30;;;;;;;17.23;64.28;97861.62;114440;1217;138249;-83
2021/08/29 06:44:41;;;;;;;0.20;0.20;;;;;;;17.33;63.75;97858.35;114506;1217;138195;-83
2021/08/29 06:47:06;;;;;;;0.20;0.20;;;;;;;17.41;63.64;97863.76;114624;1216;138128;-83
2021/08/29 06:49:32;;;;;;;0.20;0.20;;;;;;;17.51;63.30;97870.43;114501;1227;22248;-83
2021/08/29 06:55:39;;;;;;;0.20;0.20;;;;;;;17.65;62.39;97870.48;114002;1221;138334;-85
2021/08/29 06:58:05;;;;;;;0.20;0.20;;;;;;;17.70;62.23;97873.17;114084;1231;22216;-85
2021/08/29 07:00:30;;;;;;;0.30;0.30;;;;;;;17.74;61.98;97874.17;114266;1221;137412;-85
2021/08/29 07:02:56;;;;;;;0.20;0.20;;;;;;;17.80;61.58;97869.15;114477;1216;137518;-85
2021/08/29 07:05:22;;;;;;;0.20;0.20;;;;;;;17.90;61.60;97864.54;114439;1217;137555;-85
2021/08/29 07:07:47;;;;;;;0.20;0.20;;;;;;;18.00;61.07;97867.55;114463;1218;22324;-85
2021/08/29 07:10:13;;;;;;;0.10;0.10;;;;;;;18.11;60.42;97869.15;114430;1221;137167;-85
2021/08/29 07:12:39;;;;;;;0.40;0.40;;;;;;;18.24;59.96;97870.63;114396;1218;137467;-85
2021/08/29 07:15:05;;;;;;;0.30;0.30;;;;;;;18.34;59.50;97870.96;114410;1218;137421;-85
2021/08/29 07:17:31;;;;;;;0.10;0.10;;;;;;;18.43;59.25;97872.23;114432;1217;137522;-85
2021/08/29 07:19:58;;;;;;;0.30;0.30;;;;;;;18.53;58.67;97870.23;114431;1217;137948;-85
2021/08/29 07:22:24;;;;;;;0.20;0.20;;;;;;;18.60;58.83;97865.16;114555;1225;22189;-85
2021/08/29 07:24:49;;;;;;;0.30;0.30;;;;;;;18.67;58.64;97862.20;114427;1217;137164;-85
2021/08/29 07:27:15;;;;;;;0.20;0.20;;;;;;;18.76;58.05;97856.69;114300;1218;137699;-84
2021/08/29 07:29:40;;;;;;;0.20;0.20;;;;;;;18.84;57.62;97852.02;114385;1218;137599;-85
2021/08/29 07:32:07;;;;;;;0.30;0.30;;;;;;;18.96;57.26;97847.75;114428;1217;137612;-85
2021/08/29 07:34:34;;;;;;;0.20;0.20;;;;;;;19.08;57.04;97844.89;114461;1221;22389;-86
2021/08/29 07:37:00;;;;;;;0.30;0.30;;;;;;;19.20;56.55;97843.33;114412;1218;137158;-85
2021/08/29 07:39:26;;;;;;;0.20;0.20;;;;;;;19.33;56.32;97841.55;114336;1219;138246;-86
2021/08/29 07:41:51;;;;;;;0.30;0.30;;;;;;;19.44;56.11;97844.83;114263;1218;137709;-85
2021/08/29 07:44:17;;;;;;;0.20;0.20;;;;;;;19.54;55.24;97837.46;114456;1215;137686;-85
2021/08/29 07:46:42;;;;;;;0.30;0.30;;;;;;;19.63;54.69;97841.83;114647;1221;22339;-85
2021/08/29 07:49:08;;;;;;;0.30;0.30;;;;;;;19.71;54.45;97845.16;114340;1218;137126;-85
2021/08/29 07:51:34;;;;;;;0.20;0.20;;;;;;;19.80;54.00;97841.61;114419;1217;137519;-85
2021/08/29 07:54:00;;;;;;;0.20;0.20;;;;;;;19.88;53.66;97840.09;114346;1218;137473;-85
2021/08/29 07:56:25;;;;;;;0.20;0.20;;;;;;;19.94;53.45;97830.05;114405;1217;137878;-85
2021/08/29 07:58:51;;;;;;;0.30;0.30;;;;;;;20.05;53.57;97834.39;114336;1217;137925;-84
2021/08/29 08:01:16;;;;;;;0.20;0.20;;;;;;;20.16;53.13;97831.45;114458;1225;22403;-85
2021/08/29 08:03:42;;;;;;;0.40;0.40;;;;;;;20.24;52.07;97834.91;114431;1217;137545;-84
2021/08/29 08:06:07;;;;;;;0.40;0.40;;;;;;;20.32;51.88;97837.59;114524;1217;137374;-83
2021/08/29 08:08:33;;;;;;;0.30;0.30;;;;;;;20.40;51.58;97835.73;114462;1217;137738;-84
2021/08/29 08:10:58;;;;;;;0.20;0.20;;;;;;;20.49;51.15;97839.98;114342;1220;137705;-83
2021/08/29 08:13:25;;;;;;;0.40;0.40;;;;;;;20.58;50.94;97836.10;114574;1217;22124;-83
2021/08/29 08:16:00;;;;;;;0.40;0.40;;;;;;;20.69;50.79;97831.13;114533;1217;137167;-83
2021/08/29 08:18:25;;;;;;;0.40;0.40;;;;;;;20.78;50.52;97821.20;114529;1217;137856;-83
2021/08/29 08:20:51;;;;;;;0.40;0.40;;;;;;;20.89;50.14;97818.62;114351;1218;137501;-83
2021/08/29 08:23:17;;;;;;;0.40;0.40;;;;;;;21.00;49.90;97822.21;114426;1221;137766;-84
2021/08/29 08:25:43;;;;;;;0.30;0.30;;;;;;;21.09;49.48;97824.02;114499;1224;22336;-84
2021/08/29 08:28:09;;;;;;;0.30;0.30;;;;;;;21.17;49.34;97822.05;114440;1217;138973;-85
2021/08/29 08:34:35;;;;;;;0.20;0.20;;;;;;;21.34;48.60;97825.10;114409;1221;137381;-85
2021/08/29 08:40:43;;;;;;;0.30;0.30;;;;;;;21.63;48.11;97823.39;114475;1223;23191;-82
2021/08/29 08:43:10;;;;;;;0.30;0.30;;;;;;;21.71;47.62;97817.58;114257;1218;137123;-83
2021/08/29 08:45:37;;;;;;;0.40;0.40;;;;;;;21.77;47.24;97819.21;114192;1220;137953;-83
2021/08/29 08:48:04;;;;;;;0.40;0.40;;;;;;;21.81;47.16;97817.63;114204;1219;137501;-81
2021/08/29 08:50:33;;;;;;;0.30;0.30;;;;;;;21.87;46.98;97816.96;114287;1218;137660;-81
2021/08/29 08:53:01;;;;;;;0.30;0.30;;;;;;;21.92;46.46;97822.73;114258;1218;138422;-81
2021/08/29 08:55:28;;;;;;;0.40;0.40;;;;;;;21.92;46.00;97816.31;114304;1229;22364;-82
2021/08/29 08:57:54;;;;;;;0.30;0.30;;;;;;;21.95;45.76;97814.74;114260;1219;137143;-82
2021/08/29 09:00:20;;;;;;;0.40;0.40;;;;;;;22.01;46.10;97813.70;114246;1217;137379;-82
2021/08/29 09:02:46;;;;;;;0.30;0.30;;;;;;;22.10;46.23;97812.64;114285;1217;138446;-82
2021/08/29 09:05:13;;;;;;;0.30;0.30;;;;;;;22.24;46.18;97807.73;114314;1218;137651;-81
2021/08/29 09:07:39;;;;;;;0.30;0.30;;;;;;;22.41;46.17;97808.50;114628;1214;22329;-81
2021/08/29 09:10:05;;;;;;;0.40;0.40;;;;;;;22.57;46.11;97813.57;114351;1217;137475;-81
2021/08/29 09:12:30;;;;;;;0.30;0.30;;;;;;;22.75;45.77;97811.55;114419;1218;137591;-81
2021/08/29 09:14:59;;;;;;;0.20;0.20;;;;;;;22.88;45.09;97802.54;114362;1218;138075;-82
2021/08/29 09:17:27;;;;;;;0.30;0.30;;;;;;;22.99;44.83;97807.32;114362;1218;137891;-82
2021/08/29 09:20:12;;;;;;;0.20;0.20;;;;;;;23.15;44.45;97809.36;114506;1217;138161;-81
2021/08/29 09:22:40;;;;;;;0.30;0.30;;;;;;;23.19;44.08;97806.27;114614;1220;23104;-82
2021/08/29 09:25:11;;;;;;;0.20;0.20;;;;;;;23.17;44.10;97803.01;114334;1220;137762;-82
2021/08/29 09:27:49;;;;;;;0.30;0.30;;;;;;;23.33;44.05;97795.30;114411;1218;137891;-81
2021/08/29 09:30:16;;;;;;;0.40;0.40;;;;;;;23.53;43.66;97796.27;114359;1218;138097;-80
2021/08/29 09:32:50;;;;;;;0.40;0.40;;;;;;;23.72;43.62;97797.81;114350;1218;138100;-80
2021/08/29 09:35:16;;;;;;;0.50;0.50;;;;;;;23.90;42.99;97795.09;114523;1217;137763;-81
2021/08/29 09:37:42;;;;;;;0.30;0.30;;;;;;;24.13;42.30;97798.71;114493;1223;22329;-81
2021/08/29 09:40:22;;;;;;;0.30;0.30;;;;;;;24.25;42.09;97797.52;114371;1216;137636;-81
2021/08/29 09:42:50;;;;;;;0.40;0.40;;;;;;;24.31;41.52;97802.09;114528;1216;137400;-80
2021/08/29 09:50:01;;;;;;;;;;;;;;;;;;;;;
2021/08/29 09:53:09;;;;;;;0.30;0.30;;;;;;;24.20;40.28;97798.61;114056;1230;22426;-84
2021/08/29 09:55:41;;;;;;;0.40;0.40;;;;;;;24.08;40.31;97798.31;114180;1221;22357;-83
2021/08/29 09:58:20;;;;;;;0.40;0.40;;;;;;;23.95;40.07;97799.57;114261;1220;137477;-82
2021/08/29 10:01:32;;;;;;;0.30;0.30;;;;;;;23.84;40.57;97794.44;114376;1218;137717;-82
2021/08/29 10:03:57;;;;;;;;;;;;;;;23.81;40.98;97792.76;114411;1220;137710;-82
2021/08/29 10:06:28;;;;;;;0.20;0.20;;;;;;;23.76;40.17;97793.53;114370;1217;124436;-82
2021/08/29 10:09:02;;;;;;;0.30;0.30;;;;;;;23.69;39.40;97790.14;114377;1218;137457;-83
2021/08/29 10:11:30;;;;;;;0.40;0.40;;;;;;;23.65;39.71;97795.52;114387;1216;138663;-83
2021/08/29 10:13:57;;;;;;;0.50;0.50;;;;;;;23.61;40.42;97794.52;114399;1217;137583;-83
2021/08/29 10:16:27;;;;;;;0.30;0.30;;;;;;;23.59;40.76;97790.93;114492;1224;23201;-83
2021/08/29 10:18:55;;;;;;;0.40;0.40;;;;;;;23.55;40.78;97792.46;114384;1216;137154;-83
2021/08/29 10:21:23;;;;;;;0.30;0.30;;;;;;;23.52;40.85;97790.30;114343;1217;138061;-83
2021/08/29 10:23:52;;;;;;;0.40;0.40;;;;;;;23.49;40.84;97789.46;114308;1218;137542;-83
2021/08/29 10:26:21;;;;;;;0.40;0.40;;;;;;;23.48;40.09;97782.98;114323;1220;138212;-85
2021/08/29 10:29:02;;;;;;;0.50;0.50;;;;;;;23.47;39.60;97779.14;114487;1224;22343;-83
2021/08/29 10:31:37;;;;;;;0.40;0.40;;;;;;;23.44;39.39;97775.71;114485;1221;22318;-83
2021/08/29 10:34:03;;;;;;;0.30;0.30;;;;;;;23.42;39.48;97779.35;114365;1218;137362;-83
2021/08/29 10:36:29;;;;;;;0.50;0.50;;;;;;;23.41;39.93;97778.66;114378;1219;137551;-82
2021/08/29 10:38:54;;;;;;;0.40;0.40;;;;;;;23.37;39.73;97780.10;114500;1217;137327;-83
2021/08/29 10:41:22;;;;;;;0.50;0.50;;;;;;;23.33;39.71;97776.77;114312;1218;137821;-83
2021/08/29 10:43:49;;;;;;;0.40;0.40;;;;;;;23.27;40.30;97774.48;114401;1223;22435;-85
2021/08/29 10:46:17;;;;;;;0.50;0.50;;;;;;;23.20;40.67;97782.16;114273;1223;139018;-85
2021/08/29 10:48:45;;;;;;;0.30;0.30;;;;;;;23.15;40.81;97785.60;114312;1218;138168;-85
2021/08/29 10:51:14;;;;;;;0.30;0.30;;;;;;;23.10;40.99;97783.69;114286;1218;137304;-87
2021/08/29 10:53:42;;;;;;;0.30;0.30;;;;;;;23.01;40.65;97787.20;114322;1216;137982;-87
2021/08/29 10:56:37;;;;;;;0.40;0.40;;;;;;;22.88;41.20;97779.86;114321;1217;137663;-87
2021/08/29 10:59:08;;;;;;;0.30;0.30;;;;;;;22.75;41.93;97780.58;114249;1225;137613;-87
2021/08/29 11:01:37;;;;;;;;;;;;;;;22.64;42.49;97778.87;114615;1216;22447;-87
2021/08/29 11:04:18;;;;;;;0.20;0.20;;;;;;;22.47;43.03;97780.88;114413;1220;124299;-85
2021/08/29 11:06:50;;;;;;;0.20;0.20;;;;;;;22.34;43.31;97778.76;114459;1220;137459;-85
2021/08/29 11:09:38;;;;;;;0.40;0.40;;;;;;;22.22;43.44;97772.02;114548;1217;137487;-85
2021/08/29 11:12:27;;;;;;;0.40;0.40;;;;;;;22.09;44.02;97774.80;114557;1213;137454;-83
2021/08/29 11:14:56;;;;;;;0.30;0.30;;;;;;;21.99;44.77;97779.25;114487;1218;137509;-84
2021/08/29 11:17:24;;;;;;;0.30;0.30;;;;;;;21.88;45.42;97775.94;114410;1217;137651;-86
2021/08/29 11:19:53;;;;;;;0.30;0.30;;;;;;;21.76;46.10;97775.13;114545;1217;22730;-86
2021/08/29 11:22:25;;;;;;;0.20;0.20;;;;;;;21.64;46.80;97779.09;114565;1221;22332;-87
2021/08/29 11:25:30;;;;;;;0.30;0.30;;;;;;;21.50;47.30;97778.27;114602;1217;137440;-89
2021/08/29 11:28:38;;;;;;;0.30;0.30;;;;;;;21.28;48.10;97781.83;114626;1217;137458;-91
2021/08/29 11:34:08;;;;;;;0.30;0.30;;;;;;;20.89;49.54;97780.62;114458;1218;137922;-85
2021/08/29 11:36:34;;;;;;;0.20;0.20;;;;;;;20.73;50.41;97783.36;114349;1219;138113;-85
2021/08/29 11:39:00;;;;;;;0.30;0.30;;;;;;;20.59;50.97;97787.96;114379;1218;137548;-85
2021/08/29 11:41:26;;;;;;;0.20;0.20;;;;;;;20.45;51.79;97794.57;114265;1220;137976;-85
2021/08/29 11:44:32;;;;;;;0.20;0.20;;;;;;;20.29;52.34;97797.58;114470;1222;136451;-86
2021/08/29 11:46:58;;;;;;;0.20;0.20;;;;;;;19.90;53.86;97788.80;114539;1217;138028;-85
2021/08/29 11:49:24;;;;;;;0.30;0.30;;;;;;;19.68;53.94;97789.65;114584;1224;22346;-85
2021/08/29 11:51:50;;;;;;;0.20;0.20;;;;;;;19.47;53.71;97796.94;114319;1218;137921;-86
2021/08/29 11:54:19;;;;;;;0.20;0.20;;;;;;;19.30;54.05;97805.66;114343;1218;137596;-85
2021/08/29 11:56:44;;;;;;;0.20;0.20;;;;;;;19.24;55.50;97819.19;114298;1223;136383;-85